Time;durP1;ratioP1;P1;durP2;ratioP2;P2;SDS_P1;SDS_P2;PMS_P1;PMS_P2;Temp;Humidity;BMP_temperature;BMP_pressure;BME280_temperature;BME280_humidity;BME280_pressure;Samples;Min_cycle;Max_cycle;Signal;HPM_P1;HPM_P2
2022/12/29 00:01:01;;;;;;;1487.23;260.47;;;8.10;99.90;;;;;;5052017;28;20221;-53
2022/12/29 00:03:29;;;;;;;1429.97;267.93;;;8.10;99.90;;;;;;5051732;28;20240;-52
2022/12/29 00:06:00;;;;;;;1109.57;200.10;;;8.10;99.90;;;;;;5043787;28;20688;-53
2022/12/29 00:08:39;;;;;;;1200.67;221.50;;;8.10;99.90;;;;;;5051159;28;20245;-52
2022/12/29 00:11:08;;;;;;;455.60;109.30;;;8.10;99.90;;;;;;5044432;28;20201;-53
2022/12/29 00:16:22;;;;;;;1999.90;433.47;;;8.10;99.90;;;;;;5050955;28;20276;-51
2022/12/29 00:18:51;;;;;;;571.17;113.80;;;8.10;99.90;;;;;;5051801;28;20210;-53
2022/12/29 00:35:49;;;;;;;971.57;167.80;;;8.20;99.90;;;;;;4992601;28;20310;-52
2022/12/29 00:44:09;;;;;;;1999.90;455.00;;;8.20;99.90;;;;;;5050980;28;20228;-51
2022/12/29 00:46:39;;;;;;;1468.63;271.13;;;8.20;99.90;;;;;;5038240;28;20343;-52
2022/12/29 00:51:55;;;;;;;957.83;167.40;;;8.30;99.90;;;;;;5039212;28;20302;-52
2022/12/29 00:54:24;;;;;;;1999.90;510.07;;;8.30;99.90;;;;;;5050649;28;20316;-53
2022/12/29 00:56:53;;;;;;;1999.90;398.53;;;8.30;99.90;;;;;;5050737;28;20325;-52
2022/12/29 00:59:23;;;;;;;1691.43;416.97;;;8.30;99.90;;;;;;5050720;28;20209;-52
2022/12/29 01:01:53;;;;;;;1223.93;189.70;;;8.30;99.90;;;;;;5050744;28;20220;-52
2022/12/29 01:04:22;;;;;;;838.67;169.53;;;8.40;99.90;;;;;;5049605;28;20236;-52
2022/12/29 01:06:51;;;;;;;591.00;108.77;;;8.40;99.90;;;;;;5050717;28;20251;-52
2022/12/29 01:12:08;;;;;;;1999.90;343.47;;;8.40;99.90;;;;;;5037356;28;20197;-52
2022/12/29 01:14:37;;;;;;;1999.90;473.67;;;8.40;99.90;;;;;;5050706;28;20669;-52
2022/12/29 01:17:06;;;;;;;1913.00;255.90;;;8.30;99.90;;;;;;5050643;28;20222;-53
2022/12/29 01:19:34;;;;;;;1999.90;475.10;;;8.30;99.90;;;;;;5049679;28;20235;-51
2022/12/29 01:22:02;;;;;;;1823.87;326.33;;;8.30;99.90;;;;;;5047671;28;20644;-51
2022/12/29 01:24:30;;;;;;;1688.37;253.20;;;8.30;99.90;;;;;;5041127;28;20234;-52
2022/12/29 01:26:58;;;;;;;1989.07;394.27;;;8.40;99.90;;;;;;5050233;28;20205;-53
2022/12/29 01:29:28;;;;;;;1999.90;565.73;;;8.40;99.90;;;;;;5049864;28;20260;-52
2022/12/29 01:31:56;;;;;;;1999.90;494.77;;;8.40;99.90;;;;;;5050217;28;20279;-53
2022/12/29 01:34:24;;;;;;;1999.90;352.17;;;8.40;99.90;;;;;;5049936;28;20225;-53
2022/12/29 01:36:52;;;;;;;1999.90;387.57;;;8.40;99.90;;;;;;5050313;28;20225;-52
2022/12/29 01:39:20;;;;;;;1965.70;338.27;;;8.40;99.90;;;;;;5041989;28;20209;-52
2022/12/29 01:41:48;;;;;;;1999.90;439.60;;;8.50;99.90;;;;;;5049924;28;20301;-52
2022/12/29 01:44:56;;;;;;;1999.90;349.13;;;8.50;99.90;;;;;;5049091;28;20237;-51
2022/12/29 01:47:31;;;;;;;1498.33;314.30;;;8.60;99.90;;;;;;5044897;28;20292;-52
2022/12/29 01:50:05;;;;;;;1761.27;245.63;;;8.60;99.90;;;;;;5036799;28;20233;-51
2022/12/29 01:52:36;;;;;;;1507.10;334.27;;;8.60;99.90;;;;;;5047365;28;20209;-52
2022/12/29 01:55:06;;;;;;;1999.90;583.53;;;8.60;99.90;;;;;;5035851;28;20720;-53
2022/12/29 01:57:37;;;;;;;1999.90;570.27;;;8.60;99.90;;;;;;5049896;28;20279;-52
2022/12/29 02:00:09;;;;;;;1999.90;391.67;;;8.60;99.90;;;;;;5049845;28;20202;-52
2022/12/29 02:02:39;;;;;;;1999.90;470.93;;;8.70;99.90;;;;;;5049866;28;20241;-52
2022/12/29 02:05:14;;;;;;;1999.90;452.97;;;8.70;99.90;;;;;;5049544;28;20225;-53
2022/12/29 02:07:45;;;;;;;1999.90;605.27;;;8.70;99.90;;;;;;5049595;28;20209;-52
2022/12/29 02:10:14;;;;;;;1999.90;304.90;;;8.70;99.90;;;;;;5049433;28;20240;-52
2022/12/29 02:12:42;;;;;;;1999.90;548.60;;;8.70;99.90;;;;;;5049888;28;20217;-53
2022/12/29 02:15:10;;;;;;;1999.90;400.13;;;8.70;99.90;;;;;;5048947;28;20250;-52
2022/12/29 02:18:01;;;;;;;1944.00;307.70;;;8.70;99.90;;;;;;5049328;28;20268;-53
2022/12/29 02:20:58;;;;;;;836.93;132.50;;;8.80;99.90;;;;;;5049553;28;20205;-51
2022/12/29 02:24:06;;;;;;;1999.90;815.17;;;8.80;99.90;;;;;;5048981;28;20211;-52
2022/12/29 02:26:50;;;;;;;1922.83;419.97;;;8.90;99.90;;;;;;5042935;28;20205;-51
2022/12/29 02:29:53;;;;;;;1999.90;508.83;;;9.10;99.90;;;;;;5049282;28;20626;-52
2022/12/29 02:32:30;;;;;;;430.67;85.97;;;9.10;99.90;;;;;;5048451;28;20237;-52
2022/12/29 02:35:07;;;;;;;1999.90;591.63;;;9.20;99.90;;;;;;5049284;28;20279;-51
2022/12/29 02:37:43;;;;;;;1999.90;635.70;;;9.30;99.90;;;;;;5042203;28;20253;-52
2022/12/29 02:40:24;;;;;;;1951.00;253.50;;;9.30;99.90;;;;;;5049143;28;20205;-52
2022/12/29 02:43:03;;;;;;;1999.90;352.70;;;9.40;99.90;;;;;;5048423;28;20271;-52
2022/12/29 02:45:36;;;;;;;1621.00;242.07;;;9.40;99.90;;;;;;5048573;28;20263;-52
2022/12/29 02:48:15;;;;;;;758.93;173.70;;;9.40;99.90;;;;;;5048763;28;20206;-52
2022/12/29 02:50:51;;;;;;;1999.90;647.63;;;9.30;99.90;;;;;;5047443;28;20209;-51
2022/12/29 02:54:40;;;;;;;1762.47;253.00;;;9.30;99.90;;;;;;5034849;28;20804;-52
2022/12/29 02:56:09;;;;;;;1999.90;357.00;;;9.30;99.90;;;;;;5047684;28;20698;-51
2022/12/29 02:58:37;;;;;;;1999.90;326.70;;;9.20;99.90;;;;;;5048738;28;20263;-51
2022/12/29 03:01:20;;;;;;;1684.00;248.60;;;9.30;99.90;;;;;;5049070;28;20206;-51
2022/12/29 03:04:04;;;;;;;1999.90;378.20;;;9.30;99.90;;;;;;5037263;28;20225;-52
2022/12/29 03:06:39;;;;;;;1941.40;293.77;;;9.30;99.90;;;;;;5049129;28;20268;-52
2022/12/29 03:09:17;;;;;;;998.23;153.07;;;9.30;99.90;;;;;;5048812;28;20245;-52
2022/12/29 03:12:09;;;;;;;1999.90;646.80;;;9.30;99.90;;;;;;5048626;28;20845;-51
2022/12/29 03:17:48;;;;;;;1910.00;244.30;;;9.40;99.90;;;;;;5049143;28;20229;-52
2022/12/29 03:20:23;;;;;;;1999.90;417.07;;;9.40;99.90;;;;;;5048577;28;20206;-53
2022/12/29 03:22:53;;;;;;;1999.90;544.70;;;9.40;99.90;;;;;;5048831;28;20641;-52
2022/12/29 03:25:27;;;;;;;873.10;212.97;;;9.40;99.90;;;;;;5048811;28;20241;-51
2022/12/29 03:27:59;;;;;;;1999.90;409.47;;;9.40;99.90;;;;;;5051780;28;20324;-52
2022/12/29 03:30:28;;;;;;;1999.90;595.17;;;9.40;99.90;;;;;;5052530;28;20205;-53
2022/12/29 03:33:00;;;;;;;1999.90;484.63;;;9.40;99.90;;;;;;5040221;28;20813;-52
2022/12/29 03:35:33;;;;;;;1610.70;225.10;;;9.40;99.90;;;;;;5052072;28;20294;-51
2022/12/29 03:38:10;;;;;;;1999.90;382.50;;;9.40;99.90;;;;;;5038518;28;20268;-51
2022/12/29 03:40:41;;;;;;;1997.53;275.67;;;9.40;99.90;;;;;;5052392;28;20202;-51
2022/12/29 03:43:10;;;;;;;1999.90;364.63;;;9.40;99.90;;;;;;5038552;28;20293;-52
2022/12/29 03:45:38;;;;;;;1999.90;525.83;;;9.40;99.90;;;;;;5051409;28;20230;-51
2022/12/29 03:48:06;;;;;;;1716.43;236.20;;;9.40;99.90;;;;;;5052148;28;20199;-49
2022/12/29 03:50:36;;;;;;;1999.90;570.37;;;9.40;99.90;;;;;;5052548;28;20206;-50
2022/12/29 03:53:04;;;;;;;1999.90;355.30;;;9.40;99.90;;;;;;5051049;28;20627;-50
2022/12/29 03:55:32;;;;;;;1999.90;319.97;;;9.40;99.90;;;;;;5052490;28;20225;-50
2022/12/29 03:58:00;;;;;;;1942.53;224.37;;;9.40;99.90;;;;;;5051048;28;20233;-50
2022/12/29 04:00:29;;;;;;;1999.90;583.00;;;9.30;99.90;;;;;;5052268;28;20301;-51
2022/12/29 04:02:57;;;;;;;1905.77;240.50;;;9.30;99.90;;;;;;5052190;28;20685;-50
2022/12/29 04:05:26;;;;;;;1999.90;594.60;;;9.40;99.90;;;;;;5052355;28;20259;-51
2022/12/29 04:07:55;;;;;;;1999.90;427.97;;;9.30;99.90;;;;;;5051403;28;20214;-50
2022/12/29 04:10:23;;;;;;;1999.90;273.57;;;9.40;99.90;;;;;;5048850;28;20232;-50
2022/12/29 04:12:51;;;;;;;1999.90;612.80;;;9.40;99.90;;;;;;5051802;28;20240;-50
2022/12/29 04:15:20;;;;;;;1999.90;455.63;;;9.50;99.90;;;;;;5051758;28;20231;-50
2022/12/29 04:17:48;;;;;;;1999.90;506.80;;;9.40;99.90;;;;;;5042696;28;20309;-50
2022/12/29 04:23:03;;;;;;;1982.30;263.70;;;9.40;99.90;;;;;;5051658;28;20208;-51
2022/12/29 04:25:32;;;;;;;1999.90;374.30;;;9.40;99.90;;;;;;5048911;28;20222;-51
2022/12/29 04:28:00;;;;;;;1999.90;600.63;;;9.40;99.90;;;;;;5051961;28;20204;-51
2022/12/29 04:30:28;;;;;;;1999.90;804.17;;;9.40;99.90;;;;;;5051277;28;20692;-51
2022/12/29 04:32:56;;;;;;;1999.90;537.07;;;9.40;99.90;;;;;;5037943;28;20205;-51
2022/12/29 04:35:24;;;;;;;1999.90;769.53;;;9.40;99.90;;;;;;5051147;28;20820;-50
2022/12/29 04:37:52;;;;;;;1999.90;396.73;;;9.40;99.90;;;;;;5047505;28;20275;-51
2022/12/29 04:40:23;;;;;;;1999.90;321.17;;;9.40;99.90;;;;;;5041667;28;20208;-51
2022/12/29 04:42:51;;;;;;;1999.90;583.30;;;9.40;99.90;;;;;;5050837;28;20671;-51
2022/12/29 04:45:19;;;;;;;1999.90;703.93;;;9.40;99.90;;;;;;5050890;28;20225;-51
2022/12/29 04:47:47;;;;;;;1999.90;798.87;;;9.40;99.90;;;;;;5050816;28;20670;-50
2022/12/29 04:50:16;;;;;;;1999.90;485.47;;;9.40;99.90;;;;;;5050273;28;20209;-51
2022/12/29 04:52:44;;;;;;;1999.90;764.53;;;9.40;99.90;;;;;;5051056;28;20212;-50
2022/12/29 04:55:13;;;;;;;1999.90;729.80;;;9.40;99.90;;;;;;5050537;28;20224;-50
2022/12/29 04:57:42;;;;;;;1999.90;745.30;;;9.40;99.90;;;;;;5050763;28;20211;-50
2022/12/29 05:00:13;;;;;;;1999.90;562.77;;;9.40;99.90;;;;;;5051185;28;20248;-50
2022/12/29 05:02:42;;;;;;;1999.90;362.97;;;9.40;99.90;;;;;;5051029;28;20263;-50
2022/12/29 05:05:11;;;;;;;1999.90;834.93;;;9.40;99.90;;;;;;5050431;28;20227;-51
2022/12/29 05:07:39;;;;;;;1736.67;352.60;;;9.40;99.90;;;;;;5050481;28;20248;-51
2022/12/29 05:10:09;;;;;;;1999.90;499.23;;;9.40;99.90;;;;;;5050398;28;20289;-51
2022/12/29 05:12:38;;;;;;;1999.90;508.03;;;9.40;99.90;;;;;;5050583;28;20212;-51
2022/12/29 05:15:09;;;;;;;1999.90;304.77;;;9.40;99.90;;;;;;5050068;28;20306;-50
2022/12/29 05:17:37;;;;;;;1999.90;488.00;;;9.40;99.90;;;;;;5050845;28;20204;-51
2022/12/29 05:20:07;;;;;;;1999.90;505.20;;;9.40;99.90;;;;;;5050491;28;20229;-51
2022/12/29 05:22:35;;;;;;;1999.90;540.00;;;9.40;99.90;;;;;;5050435;28;20205;-50
2022/12/29 05:25:04;;;;;;;1999.90;546.63;;;9.40;99.90;;;;;;5050367;28;20229;-50
2022/12/29 05:27:32;;;;;;;1999.90;528.80;;;9.40;99.90;;;;;;5050253;28;20210;-50
2022/12/29 05:30:00;;;;;;;1999.90;509.50;;;9.30;99.90;;;;;;5050513;28;20259;-50
2022/12/29 05:32:30;;;;;;;1716.47;212.93;;;9.40;99.90;;;;;;5050118;28;20262;-50
2022/12/29 05:34:58;;;;;;;1999.90;518.47;;;9.40;99.90;;;;;;5050117;28;20337;-50
2022/12/29 05:37:26;;;;;;;1999.90;481.13;;;9.40;99.90;;;;;;5050021;28;20244;-50
2022/12/29 05:39:54;;;;;;;1801.93;188.83;;;9.30;99.90;;;;;;5050140;28;20229;-51
2022/12/29 05:42:22;;;;;;;1999.90;672.30;;;9.30;99.90;;;;;;5048891;28;20907;-51
2022/12/29 05:44:53;;;;;;;1999.90;597.83;;;9.30;99.90;;;;;;5036211;28;20320;-51
2022/12/29 05:47:21;;;;;;;1999.90;461.87;;;9.30;99.90;;;;;;5049907;28;20208;-51
2022/12/29 05:49:51;;;;;;;1999.90;501.20;;;9.30;99.90;;;;;;5049339;28;20294;-51
2022/12/29 05:52:19;;;;;;;1999.90;414.27;;;9.30;99.90;;;;;;5049740;28;20213;-51
2022/12/29 05:54:47;;;;;;;1999.90;526.80;;;9.30;99.90;;;;;;5050041;28;20282;-51
2022/12/29 05:57:15;;;;;;;1999.90;488.17;;;9.30;99.90;;;;;;5050833;28;20245;-51
2022/12/29 05:59:43;;;;;;;1999.90;704.13;;;9.30;99.90;;;;;;5051097;28;20222;-51
2022/12/29 06:02:11;;;;;;;1999.90;420.90;;;9.30;99.90;;;;;;5049758;28;20663;-51
2022/12/29 06:04:41;;;;;;;1999.90;659.60;;;9.30;99.90;;;;;;5049654;28;20233;-51
2022/12/29 06:07:10;;;;;;;1999.90;417.27;;;9.30;99.90;;;;;;5048554;28;20242;-50
2022/12/29 06:09:38;;;;;;;1999.90;499.10;;;9.30;99.90;;;;;;5049529;28;20213;-50
2022/12/29 06:12:07;;;;;;;1999.90;534.70;;;9.30;99.90;;;;;;5049354;28;20233;-51
2022/12/29 06:14:35;;;;;;;1999.90;405.50;;;9.30;99.90;;;;;;5049380;28;20748;-51
2022/12/29 06:17:03;;;;;;;1999.90;605.13;;;9.30;99.90;;;;;;5049271;28;20237;-54
2022/12/29 06:19:31;;;;;;;1999.90;563.33;;;9.30;99.90;;;;;;5049117;28;20312;-52
2022/12/29 06:21:59;;;;;;;1999.90;502.30;;;9.30;99.90;;;;;;5048427;28;20201;-50
2022/12/29 06:24:28;;;;;;;1999.90;404.33;;;9.30;99.90;;;;;;5039130;28;20236;-51
2022/12/29 06:26:56;;;;;;;1999.90;726.37;;;9.40;99.90;;;;;;5049288;28;20230;-50
2022/12/29 06:29:25;;;;;;;1999.90;368.83;;;9.30;99.90;;;;;;5048858;28;20727;-50
2022/12/29 06:31:55;;;;;;;1999.90;777.13;;;9.30;99.90;;;;;;5047995;28;20781;-51
2022/12/29 06:34:24;;;;;;;1999.90;683.60;;;9.30;99.90;;;;;;5048331;28;20614;-49
2022/12/29 06:36:52;;;;;;;1999.90;686.67;;;9.20;99.90;;;;;;5046462;28;20259;-51
2022/12/29 06:39:20;;;;;;;1999.90;658.97;;;9.20;99.90;;;;;;5048468;28;20267;-51
2022/12/29 06:41:53;;;;;;;1999.90;498.37;;;9.20;99.90;;;;;;5048946;28;20213;-51
2022/12/29 06:44:21;;;;;;;1999.90;373.73;;;9.20;99.90;;;;;;5047695;28;20222;-50
2022/12/29 06:46:49;;;;;;;1999.90;884.00;;;9.30;99.90;;;;;;5048966;28;20298;-51
2022/12/29 06:49:18;;;;;;;1999.90;384.03;;;9.20;99.90;;;;;;5047767;28;20667;-51
2022/12/29 06:51:46;;;;;;;1728.03;224.23;;;9.20;99.90;;;;;;5048824;28;20213;-51
2022/12/29 06:54:14;;;;;;;1999.90;726.67;;;9.20;99.90;;;;;;5048320;28;20241;-51
2022/12/29 06:56:42;;;;;;;1999.90;467.37;;;9.20;99.90;;;;;;5048318;28;20304;-51
2022/12/29 06:59:11;;;;;;;1999.90;822.33;;;9.20;99.90;;;;;;5042426;28;20252;-50
2022/12/29 07:01:40;;;;;;;1999.90;392.47;;;9.20;99.90;;;;;;5046982;28;20257;-50
2022/12/29 07:04:08;;;;;;;1999.90;692.97;;;9.20;99.90;;;;;;5053040;28;20807;-51
2022/12/29 07:06:36;;;;;;;1999.90;501.43;;;9.30;99.90;;;;;;5052698;28;20728;-51
2022/12/29 07:09:04;;;;;;;1999.90;649.47;;;9.40;99.90;;;;;;5051750;28;20221;-50
2022/12/29 07:11:33;;;;;;;1999.90;443.57;;;9.40;99.90;;;;;;5052583;28;20272;-51
2022/12/29 07:14:01;;;;;;;1999.90;684.47;;;9.40;99.90;;;;;;5052575;28;20274;-50
2022/12/29 07:16:30;;;;;;;1999.90;575.60;;;9.30;99.90;;;;;;5052236;28;20211;-51
2022/12/29 07:18:59;;;;;;;1999.90;505.83;;;9.30;99.90;;;;;;5051590;28;20214;-50
2022/12/29 07:21:27;;;;;;;1999.90;532.77;;;9.40;99.90;;;;;;5051792;28;20617;-49
2022/12/29 07:23:55;;;;;;;1999.90;626.77;;;9.40;99.90;;;;;;5052788;28;20304;-51
2022/12/29 07:26:24;;;;;;;1999.90;652.60;;;9.40;99.90;;;;;;5040688;28;20229;-51
2022/12/29 07:28:52;;;;;;;1933.30;222.27;;;9.40;99.90;;;;;;5032576;28;20237;-50
2022/12/29 07:31:22;;;;;;;1988.03;389.67;;;9.40;99.90;;;;;;5043526;28;20284;-51
2022/12/29 07:33:51;;;;;;;1999.90;358.00;;;9.40;99.90;;;;;;5051446;28;20300;-51
2022/12/29 07:36:19;;;;;;;1609.70;216.47;;;9.40;99.90;;;;;;5049692;28;20296;-50
2022/12/29 07:38:47;;;;;;;926.53;119.47;;;9.40;99.90;;;;;;5043737;28;20267;-50
2022/12/29 07:41:16;;;;;;;1999.90;412.77;;;9.40;99.90;;;;;;5048984;28;20231;-51
2022/12/29 07:43:47;;;;;;;1999.90;270.57;;;9.40;99.90;;;;;;5050215;28;20284;-51
2022/12/29 07:46:15;;;;;;;1999.90;284.77;;;9.40;99.90;;;;;;5048927;28;20205;-51
2022/12/29 07:49:04;;;;;;;1999.90;671.70;;;9.50;99.90;;;;;;5050727;28;20217;-51
2022/12/29 07:51:33;;;;;;;1999.90;577.57;;;9.40;99.90;;;;;;5051971;28;20794;-51
2022/12/29 07:54:01;;;;;;;1999.90;390.07;;;9.50;99.90;;;;;;5050901;28;20779;-51
2022/12/29 07:56:29;;;;;;;1999.90;492.73;;;9.50;99.90;;;;;;5051992;28;20237;-51
2022/12/29 07:58:57;;;;;;;1990.90;270.30;;;9.50;99.90;;;;;;5051404;28;20212;-51
2022/12/29 08:01:25;;;;;;;1999.90;542.70;;;9.50;99.90;;;;;;5051593;28;20907;-51
2022/12/29 08:03:53;;;;;;;1534.50;272.23;;;9.50;99.90;;;;;;5051797;28;20285;-51
2022/12/29 08:06:26;;;;;;;1999.90;690.00;;;9.50;99.90;;;;;;5052029;28;20205;-51
2022/12/29 08:08:56;;;;;;;1576.27;249.50;;;9.40;99.90;;;;;;5051452;28;20243;-51
2022/12/29 08:11:24;;;;;;;691.87;137.43;;;9.50;99.90;;;;;;5050947;28;20200;-51
2022/12/29 08:13:53;;;;;;;993.37;206.70;;;9.50;99.90;;;;;;5045081;28;20294;-51
2022/12/29 08:16:21;;;;;;;1522.93;255.60;;;9.50;99.90;;;;;;5039156;28;20679;-51
2022/12/29 08:18:49;;;;;;;1344.93;205.67;;;9.50;99.90;;;;;;5037629;28;20214;-51
2022/12/29 08:21:17;;;;;;;1999.90;254.37;;;9.50;99.90;;;;;;5033541;28;20473;-51
2022/12/29 08:23:48;;;;;;;1130.13;151.33;;;9.50;99.90;;;;;;5040353;28;20241;-52
2022/12/29 08:26:16;;;;;;;922.10;158.57;;;9.50;99.90;;;;;;5034964;28;20299;-49
2022/12/29 08:28:44;;;;;;;1999.90;610.60;;;9.50;99.90;;;;;;5046605;28;20209;-52
2022/12/29 08:31:13;;;;;;;391.50;72.33;;;9.60;99.90;;;;;;5041359;28;20210;-50
2022/12/29 08:33:41;;;;;;;1829.83;281.13;;;9.70;99.90;;;;;;5033571;28;20579;-52
2022/12/29 08:36:10;;;;;;;1999.90;360.37;;;9.60;99.90;;;;;;5034445;28;20256;-52
2022/12/29 08:38:38;;;;;;;1999.90;506.90;;;9.70;99.90;;;;;;5035479;28;20238;-50
2022/12/29 08:41:08;;;;;;;1644.27;259.83;;;9.70;99.90;;;;;;5032881;28;20314;-52
2022/12/29 08:43:36;;;;;;;1733.87;336.80;;;9.70;99.90;;;;;;5035835;28;20240;-52
2022/12/29 08:46:04;;;;;;;1100.27;135.50;;;9.80;99.90;;;;;;5031630;28;20297;-52
2022/12/29 08:48:32;;;;;;;619.60;107.57;;;9.80;99.90;;;;;;5033597;28;20700;-51
2022/12/29 08:51:01;;;;;;;1999.90;360.30;;;9.80;99.90;;;;;;5048941;28;20289;-50
2022/12/29 08:53:29;;;;;;;1999.90;549.57;;;9.80;99.90;;;;;;5049804;28;20216;-52
2022/12/29 08:55:58;;;;;;;1999.90;524.80;;;9.90;99.90;;;;;;5045015;28;20221;-51
2022/12/29 08:58:33;;;;;;;1999.90;504.93;;;9.80;99.90;;;;;;5034076;28;20624;-51
2022/12/29 09:01:01;;;;;;;1921.10;329.43;;;9.70;99.90;;;;;;5034588;28;20317;-52
2022/12/29 09:03:29;;;;;;;1999.90;675.13;;;9.70;99.90;;;;;;5030711;28;20210;-50
2022/12/29 09:06:18;;;;;;;758.97;128.47;;;9.70;99.90;;;;;;5032677;28;20581;-52
2022/12/29 09:08:46;;;;;;;1428.27;262.60;;;9.70;99.90;;;;;;5034228;28;20236;-51
2022/12/29 09:11:17;;;;;;;409.00;74.53;;;9.70;99.90;;;;;;5037818;28;20247;-52
2022/12/29 09:13:47;;;;;;;1848.10;294.43;;;9.70;99.90;;;;;;5049827;28;20256;-51
2022/12/29 09:16:16;;;;;;;1583.43;320.80;;;9.70;99.90;;;;;;5049304;28;20219;-52
2022/12/29 09:18:45;;;;;;;325.40;55.53;;;9.80;99.90;;;;;;5047353;28;20233;-50
2022/12/29 09:21:14;;;;;;;24.37;19.40;;;9.70;99.90;;;;;;5036534;28;20230;-51
2022/12/29 09:23:42;;;;;;;385.83;79.80;;;9.80;99.90;;;;;;5029976;28;20206;-52
2022/12/29 09:26:10;;;;;;;1197.60;223.63;;;9.80;99.90;;;;;;5034815;28;20206;-51
2022/12/29 09:28:40;;;;;;;1422.57;194.33;;;9.80;99.90;;;;;;5046316;28;20206;-50
2022/12/29 09:31:09;;;;;;;1953.50;269.87;;;9.80;99.90;;;;;;5048522;28;20229;-51
2022/12/29 09:33:37;;;;;;;1568.57;214.23;;;9.80;99.90;;;;;;5033955;28;20224;-51
2022/12/29 09:36:06;;;;;;;1862.03;363.37;;;9.90;99.90;;;;;;5046375;28;20205;-51
2022/12/29 09:38:34;;;;;;;941.43;165.17;;;9.90;99.90;;;;;;5045502;28;20745;-52
2022/12/29 09:41:11;;;;;;;560.57;101.60;;;9.90;99.90;;;;;;5048025;28;20233;-50
2022/12/29 09:44:04;;;;;;;1999.90;460.83;;;9.90;99.90;;;;;;5046159;28;21091;-51
2022/12/29 09:46:38;;;;;;;1644.60;241.60;;;9.80;99.90;;;;;;5037954;28;20675;-50
2022/12/29 09:49:20;;;;;;;1975.83;343.23;;;9.80;99.90;;;;;;5036240;28;20609;-51
2022/12/29 09:51:51;;;;;;;1999.90;494.10;;;9.70;99.90;;;;;;5044268;28;20237;-51
2022/12/29 09:54:43;;;;;;;1999.90;402.80;;;9.80;99.90;;;;;;5047987;28;20229;-52
2022/12/29 09:57:25;;;;;;;1999.90;458.60;;;10.00;99.90;;;;;;5048279;28;20255;-51
2022/12/29 09:59:58;;;;;;;267.33;48.37;;;10.00;99.90;;;;;;5045951;28;20582;-51
2022/12/29 10:02:35;;;;;;;1999.90;348.50;;;10.00;99.90;;;;;;5049018;28;20291;-51
2022/12/29 10:05:04;;;;;;;1999.90;623.53;;;10.00;99.90;;;;;;5029607;28;20246;-51
2022/12/29 10:07:43;;;;;;;1389.13;258.33;;;10.00;99.90;;;;;;5037938;28;20236;-51
2022/12/29 10:10:24;;;;;;;1999.90;502.23;;;10.10;99.90;;;;;;5047585;28;20205;-51
2022/12/29 10:13:02;;;;;;;1999.90;566.70;;;10.10;99.90;;;;;;5047138;28;20290;-51
2022/12/29 10:15:42;;;;;;;1128.07;192.47;;;10.10;99.90;;;;;;5038096;28;20312;-51
2022/12/29 10:18:26;;;;;;;1799.27;346.93;;;10.20;99.90;;;;;;5046625;28;20300;-51
2022/12/29 10:21:00;;;;;;;1407.90;376.50;;;10.30;99.90;;;;;;5046981;28;20221;-51
2022/12/29 10:23:32;;;;;;;717.03;145.33;;;10.30;99.90;;;;;;5047403;28;20272;-51
2022/12/29 10:26:03;;;;;;;1435.43;304.43;;;10.30;99.90;;;;;;5037622;28;20293;-51
2022/12/29 10:28:39;;;;;;;1999.90;589.43;;;10.30;99.90;;;;;;5045892;28;20214;-50
2022/12/29 10:31:14;;;;;;;1331.47;211.57;;;10.30;99.90;;;;;;5042338;28;20271;-52
2022/12/29 10:33:44;;;;;;;1999.90;516.60;;;10.30;99.90;;;;;;5046741;28;20232;-51
2022/12/29 10:36:18;;;;;;;455.23;91.37;;;10.30;99.90;;;;;;5047764;28;20208;-51
2022/12/29 10:39:06;;;;;;;1999.90;420.23;;;10.30;99.90;;;;;;5047977;28;20232;-50
2022/12/29 10:41:40;;;;;;;1999.90;646.20;;;10.30;99.90;;;;;;5045107;28;20267;-51
2022/12/29 10:44:14;;;;;;;1999.90;334.77;;;10.30;99.90;;;;;;5048060;28;20271;-50
2022/12/29 10:46:43;;;;;;;1146.70;181.60;;;10.40;99.90;;;;;;5047703;28;20836;-52
2022/12/29 10:49:17;;;;;;;1136.53;280.73;;;10.30;99.90;;;;;;5048401;28;20301;-52
2022/12/29 10:51:52;;;;;;;1999.90;482.83;;;10.30;99.90;;;;;;5048141;28;20211;-51
2022/12/29 10:54:25;;;;;;;752.17;143.07;;;10.30;99.90;;;;;;5048519;28;20227;-51
2022/12/29 10:56:58;;;;;;;1999.90;415.73;;;10.40;99.90;;;;;;5048009;28;20205;-51
2022/12/29 10:59:30;;;;;;;1606.57;350.33;;;10.30;99.90;;;;;;5043183;28;20234;-51
2022/12/29 11:02:13;;;;;;;1878.77;372.53;;;10.30;99.90;;;;;;5044392;28;20221;-52
2022/12/29 11:04:53;;;;;;;1999.90;521.30;;;10.40;99.90;;;;;;5036553;28;20229;-51
2022/12/29 11:07:22;;;;;;;1075.50;224.60;;;10.40;99.90;;;;;;5048813;28;20768;-51
2022/12/29 11:09:55;;;;;;;1999.90;482.33;;;10.50;99.90;;;;;;5049219;28;20214;-51
2022/12/29 11:12:25;;;;;;;1999.90;562.47;;;10.50;99.90;;;;;;5044073;28;20201;-51
2022/12/29 11:15:14;;;;;;;1446.00;321.70;;;10.50;99.90;;;;;;5046146;28;20805;-51
2022/12/29 11:17:47;;;;;;;1992.20;392.07;;;10.50;99.90;;;;;;5046209;28;20209;-50
2022/12/29 11:20:30;;;;;;;1999.90;546.13;;;10.50;99.90;;;;;;5047975;28;20211;-51
2022/12/29 11:22:59;;;;;;;1616.57;319.67;;;10.50;99.90;;;;;;5045094;28;20272;-50
2022/12/29 11:25:27;;;;;;;1661.93;277.67;;;10.60;99.90;;;;;;5038753;28;20264;-51
2022/12/29 11:27:57;;;;;;;1999.90;470.30;;;10.50;99.90;;;;;;5047483;28;20233;-50
2022/12/29 11:30:27;;;;;;;1722.07;293.60;;;10.50;99.90;;;;;;5048594;28;20233;-51
2022/12/29 11:32:56;;;;;;;1999.90;545.00;;;10.50;99.90;;;;;;5048191;28;20237;-51
2022/12/29 11:35:35;;;;;;;1999.90;760.60;;;10.50;99.90;;;;;;5047767;28;20226;-51
2022/12/29 11:38:04;;;;;;;1999.90;473.77;;;10.50;99.90;;;;;;5047874;28;20205;-51
2022/12/29 11:40:38;;;;;;;1999.90;401.53;;;10.50;99.90;;;;;;5044898;28;20667;-51
2022/12/29 11:43:07;;;;;;;1999.90;389.83;;;10.50;99.90;;;;;;5048102;28;20256;-51
2022/12/29 11:45:36;;;;;;;1564.03;296.20;;;10.50;99.90;;;;;;5048449;28;20291;-51
2022/12/29 11:48:09;;;;;;;1642.97;362.37;;;10.60;99.90;;;;;;5048863;28;20586;-51
2022/12/29 11:50:41;;;;;;;548.07;117.53;;;10.50;99.90;;;;;;5045941;28;20774;-51
2022/12/29 11:53:17;;;;;;;1999.90;593.17;;;10.50;99.90;;;;;;5051389;28;20206;-50
2022/12/29 11:55:53;;;;;;;1659.47;330.17;;;10.50;99.90;;;;;;5051817;28;20225;-50
2022/12/29 11:58:21;;;;;;;1605.70;384.70;;;10.50;99.90;;;;;;5051234;28;20205;-50
2022/12/29 12:00:50;;;;;;;1999.90;383.43;;;10.50;99.90;;;;;;5051470;28;20678;-51
2022/12/29 12:03:21;;;;;;;1988.13;361.07;;;10.50;99.90;;;;;;5051119;28;20226;-50
2022/12/29 12:05:55;;;;;;;1999.90;485.73;;;10.50;99.90;;;;;;5048271;28;20232;-51
2022/12/29 12:08:34;;;;;;;1651.87;278.90;;;10.50;99.90;;;;;;5051005;28;20221;-50
2022/12/29 12:11:07;;;;;;;1999.90;452.23;;;10.50;99.90;;;;;;5050799;28;20217;-51
2022/12/29 12:13:40;;;;;;;1933.77;379.13;;;10.40;99.90;;;;;;5051214;28;20260;-51
2022/12/29 12:16:13;;;;;;;1855.47;312.47;;;10.40;99.90;;;;;;5048425;28;20663;-50
2022/12/29 12:18:48;;;;;;;1999.90;508.97;;;10.30;99.90;;;;;;5044212;28;20314;-52
2022/12/29 12:21:31;;;;;;;710.03;151.80;;;10.30;99.90;;;;;;5031962;28;20233;-51
2022/12/29 12:24:21;;;;;;;1040.90;208.53;;;10.40;99.90;;;;;;5045829;28;20237;-49
2022/12/29 12:26:57;;;;;;;1999.90;384.97;;;10.30;99.90;;;;;;5051624;28;20206;-51
2022/12/29 12:29:29;;;;;;;1999.90;575.77;;;10.40;99.90;;;;;;5051190;28;20312;-51
2022/12/29 12:32:02;;;;;;;1413.57;274.53;;;10.30;99.90;;;;;;5051561;28;20320;-51
2022/12/29 12:34:40;;;;;;;1999.90;759.23;;;10.30;99.90;;;;;;5049593;28;20230;-51
2022/12/29 12:37:24;;;;;;;1999.90;630.87;;;10.30;99.90;;;;;;5049355;28;20202;-51
2022/12/29 12:40:12;;;;;;;1264.97;263.70;;;10.30;99.90;;;;;;5049847;28;20209;-51
2022/12/29 12:42:51;;;;;;;734.00;170.00;;;10.30;99.90;;;;;;5048495;28;20770;-50
2022/12/29 12:45:40;;;;;;;1123.67;201.03;;;10.30;99.90;;;;;;5049806;28;20229;-51
2022/12/29 12:48:27;;;;;;;1999.90;391.50;;;10.40;99.90;;;;;;5050064;28;20244;-51
2022/12/29 12:51:01;;;;;;;1421.20;208.93;;;10.50;99.90;;;;;;5051420;28;20205;-51
2022/12/29 12:53:42;;;;;;;1999.90;450.07;;;10.50;99.90;;;;;;5051229;28;20611;-49
2022/12/29 12:56:49;;;;;;;1999.90;685.73;;;10.50;99.90;;;;;;5051069;28;20664;-51
2022/12/29 12:59:35;;;;;;;1325.13;253.63;;;10.50;99.90;;;;;;5037909;28;20235;-51
2022/12/29 13:02:16;;;;;;;1999.90;706.63;;;10.50;99.90;;;;;;5051106;28;20305;-51
2022/12/29 13:05:02;;;;;;;1999.90;585.50;;;10.60;99.90;;;;;;5050491;28;20252;-51